Time;durP1;ratioP1;P1;durP2;ratioP2;P2;SDS_P1;SDS_P2;PMS_P1;PMS_P2;Temp;Humidity;BMP_temperature;BMP_pressure;BME280_temperature;BME280_humidity;BME280_pressure;Samples;Min_cycle;Max_cycle;Signal;HPM_P1;HPM_P2
2023/01/11 00:00:08;;;;;;;37.17;33.97;;;6.10;93.70;;;;;;4993871;28;20224;-87
2023/01/11 00:02:33;;;;;;;41.23;38.07;;;6.10;93.70;;;;;;4993948;28;20197;-88
2023/01/11 00:04:59;;;;;;;55.07;51.03;;;6.10;93.60;;;;;;4995277;28;20571;-87
2023/01/11 00:07:25;;;;;;;60.03;55.83;;;6.20;93.70;;;;;;4993853;28;20178;-89
2023/01/11 00:09:50;;;;;;;46.23;42.90;;;6.10;93.80;;;;;;4994936;28;20181;-89
2023/01/11 00:12:16;;;;;;;44.03;40.10;;;6.20;93.90;;;;;;4995104;28;20173;-88
2023/01/11 00:14:42;;;;;;;57.23;53.43;;;6.20;93.90;;;;;;4994783;28;20197;-87
2023/01/11 00:17:07;;;;;;;52.50;48.80;;;6.20;93.90;;;;;;4993563;28;20667;-88
2023/01/11 00:19:33;;;;;;;62.03;58.13;;;6.30;93.80;;;;;;4993543;28;20185;-88
2023/01/11 00:22:02;;;;;;;56.90;53.23;;;6.20;93.90;;;;;;4993613;28;20270;-88
2023/01/11 00:24:27;;;;;;;46.07;42.70;;;6.30;93.90;;;;;;4993411;28;20201;-87
2023/01/11 00:26:53;;;;;;;54.10;50.23;;;6.30;93.90;;;;;;4994797;28;20233;-88
2023/01/11 00:29:18;;;;;;;53.13;49.50;;;6.30;93.80;;;;;;4994939;28;20166;-88
2023/01/11 00:31:43;;;;;;;44.30;40.40;;;6.30;93.90;;;;;;4992746;28;20190;-89
2023/01/11 00:34:09;;;;;;;50.00;46.67;;;6.30;93.90;;;;;;4993470;28;20205;-91
2023/01/11 00:36:35;;;;;;;54.80;51.60;;;6.30;93.80;;;;;;4994968;28;20186;-88
2023/01/11 00:39:01;;;;;;;55.83;52.00;;;6.50;93.70;;;;;;4993657;28;20325;-91
2023/01/11 00:49:40;;;;;;;59.60;55.73;;;6.40;93.90;;;;;;4994899;28;20169;-90
2023/01/11 00:52:07;;;;;;;54.33;50.37;;;6.40;94.20;;;;;;4994230;28;20278;-90
2023/01/11 00:54:35;;;;;;;62.07;57.60;;;6.30;94.40;;;;;;4994263;28;20659;-92
2023/01/11 00:57:00;;;;;;;65.70;61.23;;;6.30;94.50;;;;;;4994491;28;20260;-91
2023/01/11 00:59:26;;;;;;;70.47;65.77;;;6.30;94.70;;;;;;4994621;28;20178;-91
2023/01/11 01:01:51;;;;;;;58.33;54.63;;;6.30;94.80;;;;;;4994167;28;20178;-91
2023/01/11 01:04:17;;;;;;;62.73;58.63;;;6.30;94.90;;;;;;4994223;28;20644;-90
2023/01/11 01:06:43;;;;;;;63.07;58.60;;;6.30;94.90;;;;;;4992875;28;20174;-91
2023/01/11 01:09:08;;;;;;;57.07;53.40;;;6.30;95.00;;;;;;4992926;28;20186;-90
2023/01/11 01:11:34;;;;;;;56.10;52.53;;;6.30;95.00;;;;;;4993068;28;20185;-90
2023/01/11 01:16:46;;;;;;;68.40;64.00;;;6.40;95.00;;;;;;4994495;28;20216;-89
2023/01/11 01:19:12;;;;;;;63.30;59.03;;;6.40;95.00;;;;;;4992839;28;20201;-89
2023/01/11 01:21:37;;;;;;;78.90;74.20;;;6.40;95.00;;;;;;4992530;28;20225;-89
2023/01/11 01:24:03;;;;;;;73.17;68.47;;;6.50;94.90;;;;;;4994013;28;20190;-89
2023/01/11 01:26:29;;;;;;;69.27;64.83;;;6.50;94.80;;;;;;4993979;28;20261;-90
2023/01/11 01:28:55;;;;;;;63.17;58.87;;;6.60;94.80;;;;;;4994016;28;20198;-90
2023/01/11 01:31:20;;;;;;;64.00;60.20;;;6.70;94.60;;;;;;4993974;28;20181;-89
2023/01/11 01:33:46;;;;;;;56.93;53.23;;;6.70;94.60;;;;;;4992467;28;20691;-89
2023/01/11 01:36:11;;;;;;;66.37;62.57;;;6.70;94.60;;;;;;4992605;28;20182;-89
2023/01/11 01:38:37;;;;;;;66.50;62.13;;;6.80;94.50;;;;;;4992570;28;20186;-91
2023/01/11 01:41:03;;;;;;;76.17;71.60;;;6.80;94.50;;;;;;4993298;28;20205;-91
2023/01/11 01:43:48;;;;;;;61.67;57.87;;;6.80;94.60;;;;;;4994767;28;20198;-91
2023/01/11 01:46:14;;;;;;;70.77;66.47;;;6.80;94.70;;;;;;4998101;28;20170;-91
2023/01/11 01:48:44;;;;;;;70.27;66.13;;;6.80;94.90;;;;;;5000204;28;20174;-92
2023/01/11 01:51:14;;;;;;;68.17;63.70;;;6.80;94.90;;;;;;4997134;28;20185;-91
2023/01/11 01:53:43;;;;;;;69.23;65.27;;;6.90;95.10;;;;;;4997714;28;20225;-92
2023/01/11 01:56:14;;;;;;;64.10;60.27;;;6.90;95.20;;;;;;4996444;28;20726;-90
2023/01/11 01:58:52;;;;;;;70.80;66.60;;;6.90;95.20;;;;;;4996364;28;20656;-90
2023/01/11 02:04:09;;;;;;;63.63;59.70;;;6.90;95.20;;;;;;4997832;28;20272;-90
2023/01/11 02:06:35;;;;;;;64.07;60.37;;;7.00;95.10;;;;;;4996269;28;20165;-90
2023/01/11 02:09:07;;;;;;;68.73;64.87;;;7.00;95.00;;;;;;4996147;28;20652;-89
2023/01/11 02:11:33;;;;;;;81.17;76.00;;;7.00;94.90;;;;;;4996178;28;20170;-91
2023/01/11 02:14:02;;;;;;;67.20;63.30;;;7.00;94.80;;;;;;4996519;28;20706;-92
2023/01/11 02:16:28;;;;;;;72.37;67.87;;;7.20;94.50;;;;;;4996644;28;20216;-90
2023/01/11 02:18:56;;;;;;;73.33;68.67;;;7.20;94.40;;;;;;4996110;28;20178;-86
2023/01/11 02:21:26;;;;;;;73.40;69.07;;;7.30;94.30;;;;;;4996185;28;20568;-87
2023/01/11 02:24:24;;;;;;;69.90;65.70;;;7.20;94.30;;;;;;4997105;28;20197;-87
2023/01/11 02:27:13;;;;;;;69.73;65.73;;;7.20;94.30;;;;;;4986610;28;20561;-87
2023/01/11 02:30:01;;;;;;;67.03;62.60;;;7.20;94.20;;;;;;4995641;28;20527;-88
2023/01/11 02:32:57;;;;;;;64.83;60.93;;;7.30;94.20;;;;;;4997093;28;20192;-88
2023/01/11 02:35:51;;;;;;;61.73;58.23;;;7.30;94.20;;;;;;4996090;28;20172;-88
2023/01/11 02:38:32;;;;;;;67.80;63.97;;;7.30;94.10;;;;;;4996670;28;20181;-88
2023/01/11 02:41:03;;;;;;;66.53;62.63;;;7.30;94.20;;;;;;4996437;28;20245;-88
2023/01/11 02:46:47;;;;;;;68.23;64.13;;;7.30;94.20;;;;;;4997058;28;20173;-88
2023/01/11 02:49:32;;;;;;;63.40;59.77;;;7.40;94.20;;;;;;4995395;28;20163;-88
2023/01/11 02:52:09;;;;;;;65.63;60.77;;;7.40;94.10;;;;;;4996465;28;20656;-88
2023/01/11 02:54:36;;;;;;;64.27;60.63;;;7.40;94.10;;;;;;4995555;28;20163;-88
2023/01/11 02:57:03;;;;;;;65.33;61.70;;;7.40;94.20;;;;;;4995128;28;20553;-88
2023/01/11 02:59:31;;;;;;;68.17;64.10;;;7.50;94.10;;;;;;4995022;28;20174;-88
2023/01/11 03:01:56;;;;;;;65.23;61.53;;;7.50;94.20;;;;;;4995118;28;20656;-88
2023/01/11 03:04:28;;;;;;;68.80;64.50;;;7.50;94.20;;;;;;4996120;28;20197;-88
2023/01/11 03:07:10;;;;;;;71.73;67.53;;;7.50;94.20;;;;;;4996286;28;20527;-88
2023/01/11 03:10:00;;;;;;;72.17;67.67;;;7.50;94.20;;;;;;4995025;28;20169;-88
2023/01/11 03:12:53;;;;;;;72.77;68.67;;;7.60;94.00;;;;;;4996364;28;20640;-87
2023/01/11 03:15:44;;;;;;;73.30;68.97;;;7.60;94.00;;;;;;4995154;28;20276;-88
2023/01/11 03:18:27;;;;;;;75.00;70.80;;;7.70;94.00;;;;;;4995070;28;20162;-88
2023/01/11 03:21:07;;;;;;;81.60;77.07;;;7.70;94.00;;;;;;4994820;28;20201;-88
2023/01/11 03:23:52;;;;;;;63.73;60.13;;;7.60;94.40;;;;;;4994621;28;20194;-88
2023/01/11 03:26:34;;;;;;;71.37;67.27;;;7.60;94.60;;;;;;4995570;28;20172;-88
2023/01/11 03:29:22;;;;;;;64.63;60.63;;;7.60;94.90;;;;;;4994518;28;20256;-88
2023/01/11 03:31:51;;;;;;;69.87;65.83;;;7.70;95.00;;;;;;4994563;28;20595;-88
2023/01/11 03:34:34;;;;;;;68.27;63.80;;;7.70;95.20;;;;;;4995518;28;20204;-88
2023/01/11 03:37:11;;;;;;;70.73;66.77;;;7.60;95.30;;;;;;4995180;28;20201;-88
2023/01/11 03:39:47;;;;;;;78.00;73.57;;;7.60;95.50;;;;;;4994471;28;20170;-88
2023/01/11 03:42:16;;;;;;;69.27;65.27;;;7.70;95.60;;;;;;4995543;28;20637;-88
2023/01/11 03:44:45;;;;;;;69.67;65.57;;;7.70;95.60;;;;;;4994306;28;20174;-88
2023/01/11 03:47:14;;;;;;;69.90;65.70;;;7.70;95.70;;;;;;4994518;28;20174;-88
2023/01/11 03:49:50;;;;;;;70.70;66.60;;;7.70;95.70;;;;;;4994774;28;20245;-89
2023/01/11 03:52:21;;;;;;;68.67;64.60;;;7.70;95.70;;;;;;4994099;28;20170;-87
2023/01/11 03:54:47;;;;;;;64.80;60.80;;;7.70;95.80;;;;;;4994237;28;20166;-88
2023/01/11 03:57:22;;;;;;;71.43;67.43;;;7.70;95.90;;;;;;4995250;28;20178;-88
2023/01/11 03:59:49;;;;;;;71.30;66.80;;;7.70;95.90;;;;;;4994604;28;20201;-89
2023/01/11 04:02:33;;;;;;;70.80;66.40;;;7.70;96.00;;;;;;4993960;28;20615;-89
2023/01/11 04:04:59;;;;;;;67.23;63.33;;;7.80;95.90;;;;;;4993859;28;20173;-89
2023/01/11 04:07:24;;;;;;;68.03;64.03;;;7.80;96.00;;;;;;4993800;28;20178;-88
2023/01/11 04:09:50;;;;;;;68.40;64.50;;;7.80;96.00;;;;;;4993864;28;20623;-88
2023/01/11 04:12:15;;;;;;;70.20;66.00;;;7.80;96.10;;;;;;4993702;28;20228;-88
2023/01/11 04:14:41;;;;;;;71.30;66.83;;;7.80;96.00;;;;;;4995417;28;20198;-89
2023/01/11 04:17:06;;;;;;;70.60;66.40;;;7.80;96.10;;;;;;4994848;28;20218;-88
2023/01/11 04:19:32;;;;;;;73.13;68.63;;;7.80;96.10;;;;;;4994729;28;20214;-89
2023/01/11 04:21:57;;;;;;;64.37;60.57;;;7.80;96.10;;;;;;4993439;28;20178;-88
2023/01/11 04:24:23;;;;;;;63.73;60.03;;;7.80;96.00;;;;;;4993572;28;20194;-88
2023/01/11 04:26:48;;;;;;;67.37;63.57;;;7.80;96.00;;;;;;4994564;28;20177;-88
2023/01/11 04:29:14;;;;;;;64.80;61.10;;;7.80;96.00;;;;;;4993494;28;20552;-88
2023/01/11 04:31:40;;;;;;;71.30;67.33;;;7.90;95.90;;;;;;4993322;28;20201;-88
2023/01/11 04:34:05;;;;;;;59.17;55.87;;;7.90;95.80;;;;;;4994092;28;20542;-88
2023/01/11 04:36:32;;;;;;;60.23;56.73;;;8.00;95.70;;;;;;4993352;28;20228;-89
2023/01/11 04:38:58;;;;;;;59.17;55.77;;;8.00;95.70;;;;;;4993352;28;20273;-89
2023/01/11 04:44:08;;;;;;;58.73;55.33;;;8.00;95.50;;;;;;4994627;28;20790;-89
2023/01/11 04:46:34;;;;;;;66.90;63.10;;;8.00;95.50;;;;;;4993144;28;20193;-89
2023/01/11 04:48:59;;;;;;;68.47;64.57;;;8.10;95.50;;;;;;4993397;28;20197;-88
2023/01/11 04:51:25;;;;;;;60.47;56.77;;;8.10;95.50;;;;;;4993052;28;20273;-89
2023/01/11 04:53:50;;;;;;;64.50;60.80;;;8.20;95.40;;;;;;4993025;28;20201;-89
2023/01/11 04:56:17;;;;;;;62.50;58.70;;;8.10;95.40;;;;;;4992946;28;20182;-89
2023/01/11 04:58:43;;;;;;;64.27;60.57;;;8.20;95.60;;;;;;4992995;28;20567;-89
2023/01/11 05:01:11;;;;;;;71.47;67.53;;;8.20;95.50;;;;;;4992902;28;20738;-88
2023/01/11 05:03:37;;;;;;;71.43;67.37;;;8.30;95.50;;;;;;4992744;28;20672;-89
2023/01/11 05:06:03;;;;;;;61.07;57.57;;;8.30;95.40;;;;;;4992943;28;20178;-89
2023/01/11 05:08:29;;;;;;;64.33;60.73;;;8.30;95.40;;;;;;4992868;28;20232;-89
2023/01/11 05:10:59;;;;;;;59.77;56.47;;;8.30;95.40;;;;;;4993030;28;20667;-89
2023/01/11 05:13:40;;;;;;;63.93;60.33;;;8.30;95.40;;;;;;4994190;28;20213;-89
2023/01/11 05:16:17;;;;;;;70.63;66.63;;;8.30;95.40;;;;;;4994389;28;20528;-89
2023/01/11 05:18:50;;;;;;;64.50;60.90;;;8.40;95.40;;;;;;4992550;28;20186;-89
2023/01/11 05:21:19;;;;;;;66.30;62.60;;;8.30;95.40;;;;;;4992756;28;20252;-89
2023/01/11 05:23:45;;;;;;;65.70;61.93;;;8.40;95.40;;;;;;4993899;28;20229;-89
2023/01/11 05:26:16;;;;;;;61.73;58.30;;;8.40;95.40;;;;;;4992558;28;20220;-89
2023/01/11 05:28:42;;;;;;;69.50;65.57;;;8.40;95.50;;;;;;4992602;28;20240;-89
2023/01/11 05:31:08;;;;;;;66.73;62.93;;;8.40;95.50;;;;;;4993059;28;20190;-88
2023/01/11 05:33:33;;;;;;;69.80;65.90;;;8.40;95.40;;;;;;4992397;28;20244;-89
2023/01/11 05:36:09;;;;;;;79.17;74.60;;;8.50;95.40;;;;;;4992542;28;20193;-89
2023/01/11 05:38:34;;;;;;;79.97;75.47;;;8.40;95.40;;;;;;4992767;28;20181;-90
2023/01/11 05:41:02;;;;;;;78.20;73.70;;;8.50;95.50;;;;;;4993960;28;20734;-90
2023/01/11 05:43:29;;;;;;;76.77;72.47;;;8.40;95.50;;;;;;4993031;28;20576;-89
2023/01/11 05:45:59;;;;;;;77.00;72.70;;;8.50;95.60;;;;;;4992588;28;20181;-89
2023/01/11 05:48:25;;;;;;;76.90;72.63;;;8.50;95.60;;;;;;4992503;28;20209;-89
2023/01/11 05:50:52;;;;;;;74.80;70.60;;;8.50;95.70;;;;;;4993737;28;20189;-90
2023/01/11 05:53:19;;;;;;;74.43;70.33;;;8.50;95.70;;;;;;4993838;28;20213;-89
2023/01/11 05:55:57;;;;;;;74.50;70.33;;;8.50;95.70;;;;;;4993066;28;20189;-89
2023/01/11 05:58:25;;;;;;;76.00;71.70;;;8.50;95.70;;;;;;4992639;28;20178;-89
2023/01/11 06:00:53;;;;;;;75.57;71.37;;;8.50;95.80;;;;;;4992539;28;20209;-89
2023/01/11 06:03:19;;;;;;;72.73;68.57;;;8.60;95.80;;;;;;4993866;28;20747;-89
2023/01/11 06:05:45;;;;;;;75.90;71.67;;;8.60;95.80;;;;;;4992656;28;20525;-90
2023/01/11 06:08:11;;;;;;;72.50;68.47;;;8.70;95.90;;;;;;4993270;28;20643;-89
2023/01/11 06:10:36;;;;;;;74.43;70.30;;;8.70;95.90;;;;;;4993688;28;20174;-89
2023/01/11 06:13:44;;;;;;;76.97;72.67;;;8.70;95.90;;;;;;4992232;28;20728;-89
2023/01/11 06:15:59;;;;;;;77.53;73.23;;;8.70;95.90;;;;;;4987880;28;20232;-89
2023/01/11 06:18:25;;;;;;;72.47;68.27;;;8.70;95.90;;;;;;4992207;28;20180;-89
2023/01/11 06:20:53;;;;;;;74.50;70.27;;;8.70;96.00;;;;;;4992078;28;20250;-89
2023/01/11 06:23:18;;;;;;;71.87;67.83;;;8.70;96.00;;;;;;4992064;28;20194;-88
2023/01/11 06:25:44;;;;;;;72.53;68.43;;;8.70;96.00;;;;;;4992185;28;20727;-89
2023/01/11 06:28:10;;;;;;;73.27;69.17;;;8.80;96.10;;;;;;4993333;28;20170;-89
2023/01/11 06:30:36;;;;;;;72.63;68.43;;;8.80;96.10;;;;;;4994844;28;20250;-89
2023/01/11 06:33:04;;;;;;;72.33;68.13;;;8.80;96.10;;;;;;4995595;28;20198;-89
2023/01/11 06:35:38;;;;;;;75.17;70.70;;;8.90;96.10;;;;;;4997130;28;20170;-89
2023/01/11 06:38:04;;;;;;;76.50;72.00;;;8.90;96.10;;;;;;4995631;28;20644;-88
2023/01/11 06:40:30;;;;;;;79.03;74.33;;;8.90;96.00;;;;;;4996212;28;20233;-88
2023/01/11 06:42:55;;;;;;;74.37;70.07;;;8.90;96.00;;;;;;4995437;28;20233;-89
2023/01/11 06:45:21;;;;;;;77.17;72.40;;;8.90;96.10;;;;;;4995406;28;20205;-89
2023/01/11 06:47:47;;;;;;;80.03;75.33;;;8.90;96.10;;;;;;4995658;28;20177;-89
2023/01/11 06:50:12;;;;;;;85.30;80.30;;;9.00;96.10;;;;;;4996182;28;20173;-89
2023/01/11 06:52:38;;;;;;;83.90;79.00;;;9.00;96.10;;;;;;4995360;28;20592;-90
2023/01/11 06:55:04;;;;;;;82.43;77.40;;;9.00;96.10;;;;;;4996401;28;20209;-88
2023/01/11 06:57:29;;;;;;;78.33;73.83;;;9.00;96.10;;;;;;4996277;28;20178;-89
2023/01/11 06:59:55;;;;;;;83.57;78.67;;;9.00;96.20;;;;;;4995340;28;20213;-89
2023/01/11 07:02:20;;;;;;;81.57;76.70;;;9.00;96.20;;;;;;4996358;28;20174;-89
2023/01/11 07:04:46;;;;;;;85.53;80.33;;;9.00;96.30;;;;;;4995071;28;20179;-89
2023/01/11 07:07:12;;;;;;;85.97;80.87;;;9.00;96.30;;;;;;4995315;28;20174;-89
2023/01/11 07:09:37;;;;;;;87.50;82.13;;;9.00;96.40;;;;;;4996165;28;20181;-89
2023/01/11 07:12:03;;;;;;;87.00;81.83;;;9.00;96.40;;;;;;4996069;28;20755;-89
2023/01/11 07:14:28;;;;;;;85.27;80.03;;;9.00;96.40;;;;;;4995858;28;20277;-89
2023/01/11 07:16:54;;;;;;;89.87;84.47;;;9.00;96.40;;;;;;4994788;28;20178;-89
2023/01/11 07:19:19;;;;;;;91.60;86.10;;;8.90;96.40;;;;;;4994674;28;20174;-88
2023/01/11 07:21:45;;;;;;;92.00;86.37;;;8.90;96.40;;;;;;4994588;28;20202;-89
2023/01/11 07:24:11;;;;;;;90.70;85.13;;;8.90;96.40;;;;;;4994702;28;20206;-88
2023/01/11 07:26:40;;;;;;;94.97;89.30;;;9.00;96.50;;;;;;4994612;28;20182;-89
2023/01/11 07:29:06;;;;;;;96.90;90.90;;;9.00;96.50;;;;;;4994668;28;20728;-89
2023/01/11 07:31:32;;;;;;;95.10;89.27;;;9.00;96.50;;;;;;4994450;28;20189;-89
2023/01/11 07:33:57;;;;;;;97.03;90.60;;;9.00;96.50;;;;;;4994786;28;20575;-89
2023/01/11 07:36:23;;;;;;;93.87;88.00;;;9.00;96.60;;;;;;4994397;28;20182;-89
2023/01/11 07:38:48;;;;;;;91.17;85.57;;;9.00;96.60;;;;;;4995896;28;20209;-89
2023/01/11 07:43:58;;;;;;;84.80;79.57;;;9.00;96.60;;;;;;4995892;28;20252;-89
2023/01/11 07:46:24;;;;;;;85.77;80.50;;;9.00;96.60;;;;;;4995490;28;20205;-89
2023/01/11 07:48:49;;;;;;;95.17;89.23;;;9.00;96.60;;;;;;4994501;28;20181;-89
2023/01/11 07:51:19;;;;;;;98.97;92.87;;;9.00;96.60;;;;;;4994144;28;20639;-89
2023/01/11 07:53:45;;;;;;;101.07;94.83;;;9.00;96.60;;;;;;4994101;28;20202;-89
2023/01/11 07:56:10;;;;;;;99.20;93.50;;;9.00;96.50;;;;;;4994329;28;20174;-89
2023/01/11 07:58:36;;;;;;;102.17;96.00;;;9.00;96.50;;;;;;4994303;28;20662;-89
2023/01/11 08:01:01;;;;;;;102.53;96.13;;;8.90;96.40;;;;;;4995172;28;20208;-89
2023/01/11 08:03:27;;;;;;;99.20;93.50;;;8.90;96.40;;;;;;4993852;28;20286;-89
2023/01/11 08:05:53;;;;;;;101.97;95.97;;;8.90;96.40;;;;;;4993868;28;20640;-89
2023/01/11 08:08:18;;;;;;;106.20;100.00;;;8.90;96.30;;;;;;4993839;28;20557;-89
2023/01/11 08:10:44;;;;;;;101.17;94.67;;;8.90;96.30;;;;;;4993916;28;20185;-87
2023/01/11 08:15:58;;;;;;;107.83;100.83;;;8.90;96.20;;;;;;4995259;28;20282;-87
2023/01/11 08:18:24;;;;;;;106.63;99.93;;;8.90;96.20;;;;;;4993634;28;20178;-86
2023/01/11 08:20:52;;;;;;;105.43;99.03;;;9.00;96.20;;;;;;4993581;28;20628;-90
2023/01/11 08:23:18;;;;;;;105.37;98.73;;;8.90;96.10;;;;;;4994613;28;20257;-88
2023/01/11 08:25:44;;;;;;;96.80;90.90;;;8.90;96.00;;;;;;4993678;28;20656;-89
2023/01/11 08:28:10;;;;;;;97.03;90.60;;;9.00;95.90;;;;;;4994714;28;20171;-89
2023/01/11 08:30:37;;;;;;;94.70;88.47;;;9.00;95.90;;;;;;4994616;28;20257;-90
2023/01/11 08:33:04;;;;;;;88.03;82.30;;;9.00;95.60;;;;;;4994673;28;20672;-89
2023/01/11 08:35:30;;;;;;;84.63;79.27;;;9.00;95.40;;;;;;4994313;28;20181;-87
2023/01/11 08:37:56;;;;;;;80.37;74.80;;;9.00;95.20;;;;;;4993321;28;20174;-86
2023/01/11 08:40:24;;;;;;;82.83;76.33;;;9.10;95.00;;;;;;4993151;28;20709;-87
2023/01/11 08:42:54;;;;;;;78.13;72.87;;;9.00;94.90;;;;;;4994437;28;20208;-89
2023/01/11 08:45:20;;;;;;;83.00;77.50;;;9.00;94.80;;;;;;4993211;28;20213;-89
2023/01/11 08:47:45;;;;;;;82.10;76.63;;;9.00;94.70;;;;;;4993465;28;20170;-90
2023/01/11 08:50:11;;;;;;;78.77;73.50;;;9.00;94.60;;;;;;4993420;28;20550;-89
2023/01/11 08:52:36;;;;;;;80.33;74.93;;;9.00;94.60;;;;;;4992889;28;20233;-89
2023/01/11 08:55:06;;;;;;;82.50;76.73;;;9.10;94.60;;;;;;4993101;28;20178;-90
2023/01/11 08:57:31;;;;;;;83.00;77.57;;;9.00;94.50;;;;;;4993287;28;20203;-89
2023/01/11 08:59:57;;;;;;;83.37;77.73;;;9.00;94.50;;;;;;4993112;28;20240;-89
2023/01/11 09:02:22;;;;;;;83.47;77.70;;;9.00;94.50;;;;;;4994337;28;20229;-89
2023/01/11 09:04:48;;;;;;;83.70;77.27;;;9.00;94.50;;;;;;4992843;28;20177;-89
2023/01/11 09:07:13;;;;;;;85.60;79.97;;;9.00;94.60;;;;;;4993107;28;20186;-90
2023/01/11 09:09:40;;;;;;;86.73;81.33;;;9.00;94.60;;;;;;4994314;28;20170;-89
2023/01/11 09:12:05;;;;;;;85.03;79.40;;;9.00;94.60;;;;;;4993570;28;20182;-90
2023/01/11 09:14:31;;;;;;;85.43;80.10;;;9.00;94.70;;;;;;4992649;28;20219;-89
2023/01/11 09:16:56;;;;;;;84.00;78.40;;;9.10;94.70;;;;;;4992907;28;20212;-89
2023/01/11 09:19:22;;;;;;;86.83;81.47;;;9.10;94.80;;;;;;4992707;28;20205;-88
2023/01/11 09:21:48;;;;;;;85.27;80.13;;;9.10;94.80;;;;;;4992664;28;20260;-89
2023/01/11 09:24:14;;;;;;;87.37;81.93;;;9.10;94.90;;;;;;4992672;28;20202;-88
2023/01/11 09:26:42;;;;;;;87.63;82.53;;;9.20;94.80;;;;;;4993561;28;20213;-89
2023/01/11 09:29:07;;;;;;;83.93;78.60;;;9.20;94.90;;;;;;4992727;28;20178;-89
2023/01/11 09:31:33;;;;;;;83.90;78.73;;;9.20;94.90;;;;;;4992594;28;20184;-89
2023/01/11 09:33:58;;;;;;;85.70;80.57;;;9.20;94.90;;;;;;4992478;28;20231;-89
2023/01/11 09:36:26;;;;;;;84.17;79.07;;;9.20;94.90;;;;;;4992505;28;20185;-89
2023/01/11 09:38:55;;;;;;;85.67;80.60;;;9.20;94.90;;;;;;4992504;28;20189;-89
2023/01/11 09:41:29;;;;;;;90.73;85.17;;;9.20;94.90;;;;;;4992687;28;20210;-89
2023/01/11 09:44:01;;;;;;;90.23;84.83;;;9.20;95.00;;;;;;4992452;28;20237;-89
2023/01/11 09:46:28;;;;;;;90.87;85.47;;;9.20;95.00;;;;;;4993283;28;20198;-89
2023/01/11 09:48:58;;;;;;;90.50;84.97;;;9.20;95.00;;;;;;4993968;28;20174;-89
2023/01/11 09:51:32;;;;;;;89.20;83.73;;;9.20;95.00;;;;;;4993543;28;20235;-89
2023/01/11 09:54:00;;;;;;;87.87;82.43;;;9.20;95.00;;;;;;4992451;28;20255;-88
2023/01/11 09:56:32;;;;;;;82.53;76.93;;;9.30;94.90;;;;;;4992975;28;20188;-89
2023/01/11 09:59:18;;;;;;;81.20;76.07;;;9.20;94.90;;;;;;4992509;28;20751;-89
2023/01/11 10:02:09;;;;;;;80.80;75.23;;;9.30;94.80;;;;;;4993832;28;20190;-89
2023/01/11 10:04:41;;;;;;;79.93;74.70;;;9.20;94.70;;;;;;4994915;28;20174;-89
2023/01/11 10:07:27;;;;;;;84.60;79.07;;;9.20;94.70;;;;;;4997284;28;20158;-89
2023/01/11 10:10:20;;;;;;;79.43;74.40;;;9.20;94.60;;;;;;4996094;28;20246;-88
2023/01/11 10:13:13;;;;;;;80.70;75.63;;;9.20;94.60;;;;;;4996059;28;20257;-88
2023/01/11 10:15:59;;;;;;;77.23;72.27;;;9.20;94.60;;;;;;4996132;28;20258;-89
2023/01/11 10:19:03;;;;;;;75.73;70.90;;;9.30;94.50;;;;;;4996941;28;20177;-89
2023/01/11 10:21:52;;;;;;;77.23;71.87;;;9.30;94.50;;;;;;4995786;28;20260;-89
2023/01/11 10:24:26;;;;;;;72.57;67.80;;;9.30;94.50;;;;;;4995803;28;20201;-88
2023/01/11 10:26:58;;;;;;;75.30;69.70;;;9.30;94.50;;;;;;4996656;28;20199;-89
2023/01/11 10:30:05;;;;;;;75.03;69.87;;;9.30;94.40;;;;;;4995812;28;20170;-89
2023/01/11 10:41:28;;;;;;;58.07;53.90;;;9.40;93.80;;;;;;4996657;28;20558;-89
2023/01/11 10:44:17;;;;;;;58.80;54.47;;;9.40;93.80;;;;;;4995474;28;20277;-89
2023/01/11 10:46:48;;;;;;;57.80;53.70;;;9.40;93.80;;;;;;4996248;28;20258;-89
2023/01/11 10:49:55;;;;;;;62.37;57.90;;;9.40;93.70;;;;;;4996571;28;20158;-89
2023/01/11 10:52:33;;;;;;;60.17;56.33;;;9.50;93.70;;;;;;4995581;28;20177;-89
2023/01/11 10:55:01;;;;;;;64.20;59.43;;;9.50;93.70;;;;;;4995237;28;20174;-89
2023/01/11 10:58:10;;;;;;;65.73;61.43;;;9.50;93.70;;;;;;4995247;28;20173;-89
2023/01/11 11:00:50;;;;;;;64.07;59.40;;;9.50;93.70;;;;;;4920510;29;20204;-88
2023/01/11 11:03:56;;;;;;;64.37;60.10;;;9.50;93.70;;;;;;5007151;28;20205;-88
2023/01/11 11:06:56;;;;;;;63.20;58.60;;;9.50;93.60;;;;;;4995068;28;20204;-89
2023/01/11 11:09:33;;;;;;;61.87;57.63;;;9.50;93.50;;;;;;4994991;28;20659;-90
2023/01/11 11:12:07;;;;;;;61.73;56.93;;;9.40;93.50;;;;;;4995074;28;20170;-89
2023/01/11 11:14:40;;;;;;;64.07;59.30;;;9.40;93.40;;;;;;4996073;28;20181;-89
2023/01/11 11:17:29;;;;;;;61.77;57.50;;;9.40;93.50;;;;;;4994257;28;20201;-89
2023/01/11 11:19:56;;;;;;;61.57;57.40;;;9.40;93.50;;;;;;4994544;28;20241;-88
2023/01/11 11:22:22;;;;;;;63.53;58.77;;;9.40;93.50;;;;;;4994632;28;20640;-88
2023/01/11 11:25:11;;;;;;;65.03;60.33;;;9.40;93.50;;;;;;4996274;28;20285;-88
2023/01/11 11:27:40;;;;;;;67.07;62.30;;;9.40;93.60;;;;;;4995469;28;20240;-88
2023/01/11 11:30:10;;;;;;;67.67;62.67;;;9.30;93.60;;;;;;4995919;28;20584;-89
2023/01/11 11:32:38;;;;;;;64.93;60.80;;;9.30;93.60;;;;;;4994487;28;20209;-89
2023/01/11 11:35:06;;;;;;;68.33;63.80;;;9.40;93.60;;;;;;4994534;28;20174;-88
2023/01/11 11:37:34;;;;;;;68.90;63.63;;;9.40;93.70;;;;;;4994883;28;20548;-88
2023/01/11 11:40:01;;;;;;;65.90;61.40;;;9.40;93.70;;;;;;4994371;28;20277;-88
2023/01/11 11:42:26;;;;;;;64.93;60.53;;;9.40;93.70;;;;;;4994387;28;20178;-88
2023/01/11 11:45:10;;;;;;;64.03;59.40;;;9.40;93.70;;;;;;4995590;28;20170;-89
2023/01/11 11:47:36;;;;;;;60.80;56.03;;;9.30;93.60;;;;;;4994229;28;20256;-89
2023/01/11 11:50:23;;;;;;;58.40;53.87;;;9.40;93.60;;;;;;4994300;28;20174;-89
2023/01/11 11:53:03;;;;;;;62.40;57.60;;;9.40;93.50;;;;;;4994027;28;20229;-89
2023/01/11 11:55:32;;;;;;;61.70;57.07;;;9.40;93.50;;;;;;4994057;28;20178;-88
2023/01/11 11:58:04;;;;;;;60.30;55.77;;;9.30;93.50;;;;;;4994058;28;20228;-89
2023/01/11 12:00:33;;;;;;;55.03;50.73;;;9.30;93.50;;;;;;4994316;28;20197;-89
2023/01/11 12:03:10;;;;;;;54.50;49.90;;;9.40;93.30;;;;;;4993879;28;20286;-88
2023/01/11 12:05:35;;;;;;;48.20;44.20;;;9.30;93.00;;;;;;4994013;28;20166;-89
2023/01/11 12:08:02;;;;;;;43.73;39.87;;;9.30;92.90;;;;;;4993856;28;20185;-88
2023/01/11 12:10:29;;;;;;;42.23;38.27;;;9.30;92.60;;;;;;4993914;28;20216;-87
2023/01/11 12:12:57;;;;;;;40.23;36.50;;;9.30;92.30;;;;;;4994772;28;20202;-87
2023/01/11 12:15:31;;;;;;;41.80;38.33;;;9.30;92.20;;;;;;4994377;28;20185;-88
2023/01/11 12:18:25;;;;;;;39.30;36.27;;;9.20;92.20;;;;;;4995298;28;20534;-87
2023/01/11 12:20:51;;;;;;;38.20;35.20;;;9.20;92.20;;;;;;4993567;28;20648;-88
2023/01/11 12:23:25;;;;;;;37.47;34.23;;;9.20;92.10;;;;;;4993484;28;20288;-88
2023/01/11 12:26:03;;;;;;;34.60;31.07;;;9.20;92.00;;;;;;4993779;28;20174;-88
2023/01/11 12:28:49;;;;;;;38.80;35.30;;;9.20;92.00;;;;;;4992479;28;20210;-88
2023/01/11 12:31:46;;;;;;;36.90;33.40;;;9.20;92.00;;;;;;4993325;28;20244;-88
2023/01/11 12:34:28;;;;;;;37.90;34.63;;;9.20;92.00;;;;;;4993407;28;20261;-88
2023/01/11 12:37:19;;;;;;;37.53;34.10;;;9.20;92.10;;;;;;4993320;28;20637;-88
2023/01/11 12:40:21;;;;;;;37.97;34.17;;;9.20;92.00;;;;;;4994411;28;20265;-88
2023/01/11 12:43:23;;;;;;;33.23;30.00;;;9.20;91.90;;;;;;4993224;28;20205;-88
2023/01/11 12:46:12;;;;;;;34.47;30.67;;;9.20;91.70;;;;;;4993267;28;20166;-89
2023/01/11 12:48:56;;;;;;;35.40;31.87;;;9.20;91.60;;;;;;4993223;28;20580;-88
2023/01/11 12:51:49;;;;;;;34.10;30.47;;;9.20;91.50;;;;;;4993851;28;20548;-88
2023/01/11 12:54:32;;;;;;;34.30;30.90;;;9.20;91.40;;;;;;4993335;28;20205;-87
2023/01/11 12:57:11;;;;;;;31.70;28.83;;;9.20;91.50;;;;;;4993637;28;20171;-88
2023/01/11 13:00:04;;;;;;;27.33;24.77;;;9.10;91.20;;;;;;4993046;28;20184;-88
2023/01/11 13:02:57;;;;;;;31.57;26.30;;;9.10;90.50;;;;;;4993621;28;20210;-88
2023/01/11 13:05:45;;;;;;;25.33;22.77;;;9.10;90.60;;;;;;4993191;28;20176;-88
2023/01/11 13:08:22;;;;;;;29.87;21.00;;;9.10;90.10;;;;;;4993980;28;20174;-88
2023/01/11 13:11:33;;;;;;;24.80;19.60;;;9.40;89.60;;;;;;4994115;28;20166;-88
2023/01/11 13:14:25;;;;;;;19.17;17.27;;;9.70;89.40;;;;;;4992500;28;20209;-88
2023/01/11 13:17:23;;;;;;;23.03;17.13;;;9.80;87.90;;;;;;4966851;28;20663;-88
2023/01/11 13:19:48;;;;;;;21.73;15.27;;;9.80;87.70;;;;;;4994398;28;20170;-87
2023/01/11 13:22:19;;;;;;;25.27;15.10;;;9.80;86.90;;;;;;4992672;28;20652;-88
2023/01/11 13:24:46;;;;;;;21.77;15.23;;;9.80;86.50;;;;;;4992888;28;20643;-88
2023/01/11 13:27:18;;;;;;;16.73;15.10;;;9.80;86.10;;;;;;4992950;28;20212;-88
2023/01/11 13:29:46;;;;;;;20.80;16.47;;;9.70;86.30;;;;;;4992947;28;20265;-89
2023/01/11 13:32:22;;;;;;;24.60;18.17;;;9.70;86.50;;;;;;4993047;28;20190;-88